Terminal Aerodrome Forecast
Issued by NWS Wichita, KS

Home | Current Version | Previous Version | Graphics & Text | Print | Product List | Glossary On
Versions: 1 2 3 4 5 6 7 8 9 10 11 12 13 14 15 16
836
FTUS43 KICT 262028 AAB
TAFICT
TAF AMD
KICT 262028Z 2620/2718 34015G23KT P6SM BKN035
      TEMPO 2620/2624 SCT035
     FM270000 33008KT P6SM SCT200
     FM270200 32004KT P6SM FEW250
     FM271400 15004KT P6SM BKN140=

USA.gov is the U.S. government's official web portal to all federal, state and local government web resources and services.